sensor_id;sensor_type;location;lat;lon;timestamp;pressure;altitude;pressure_sealevel;temperature;humidity
43820;BME280;67762;52.476;6.046;2023-04-28T00:01:58;101493.91;;;8.48;61.20
43820;BME280;67762;52.476;6.046;2023-04-28T00:04:24;101491.38;;;8.46;60.41
43820;BME280;67762;52.476;6.046;2023-04-28T00:06:50;101479.47;;;8.41;60.68
43820;BME280;67762;52.476;6.046;2023-04-28T00:09:15;101475.38;;;8.37;61.12
43820;BME280;67762;52.476;6.046;2023-04-28T00:11:43;101479.69;;;8.28;60.89
43820;BME280;67762;52.476;6.046;2023-04-28T00:14:09;101466.19;;;8.20;61.02
43820;BME280;67762;52.476;6.046;2023-04-28T00:16:34;101466.00;;;8.12;60.75
43820;BME280;67762;52.476;6.046;2023-04-28T00:19:00;101459.66;;;8.03;61.31
43820;BME280;67762;52.476;6.046;2023-04-28T00:21:26;101460.19;;;7.97;61.88
43820;BME280;67762;52.476;6.046;2023-04-28T00:23:53;101448.44;;;7.90;61.16
43820;BME280;67762;52.476;6.046;2023-04-28T00:26:18;101442.66;;;7.85;61.62
43820;BME280;67762;52.476;6.046;2023-04-28T00:28:44;101437.47;;;7.84;62.13
43820;BME280;67762;52.476;6.046;2023-04-28T00:31:11;101438.56;;;7.81;62.46
43820;BME280;67762;52.476;6.046;2023-04-28T00:33:37;101431.59;;;7.80;61.94
43820;BME280;67762;52.476;6.046;2023-04-28T00:36:03;101431.84;;;7.77;63.23
43820;BME280;67762;52.476;6.046;2023-04-28T00:38:30;101422.19;;;7.76;63.23
43820;BME280;67762;52.476;6.046;2023-04-28T00:40:55;101424.41;;;7.71;63.54
43820;BME280;67762;52.476;6.046;2023-04-28T00:43:21;101421.03;;;7.69;63.58
43820;BME280;67762;52.476;6.046;2023-04-28T00:45:50;101416.81;;;7.66;63.61
43820;BME280;67762;52.476;6.046;2023-04-28T00:48:16;101418.78;;;7.64;63.44
43820;BME280;67762;52.476;6.046;2023-04-28T00:50:43;101414.97;;;7.57;63.33
43820;BME280;67762;52.476;6.046;2023-04-28T00:53:10;101413.66;;;7.52;64.04
43820;BME280;67762;52.476;6.046;2023-04-28T00:55:36;101405.97;;;7.49;64.82
43820;BME280;67762;52.476;6.046;2023-04-28T00:58:02;101393.78;;;7.46;64.80
43820;BME280;67762;52.476;6.046;2023-04-28T01:00:29;101394.16;;;7.42;64.98
43820;BME280;67762;52.476;6.046;2023-04-28T01:02:56;101396.50;;;7.35;64.54
43820;BME280;67762;52.476;6.046;2023-04-28T01:05:23;101391.84;;;7.28;65.35
43820;BME280;67762;52.476;6.046;2023-04-28T01:07:49;101392.22;;;7.23;64.82
43820;BME280;67762;52.476;6.046;2023-04-28T01:10:15;101383.94;;;7.17;65.05
43820;BME280;67762;52.476;6.046;2023-04-28T01:12:41;101391.31;;;7.13;65.30
43820;BME280;67762;52.476;6.046;2023-04-28T01:15:14;101390.13;;;7.06;65.71
43820;BME280;67762;52.476;6.046;2023-04-28T01:17:40;101386.31;;;6.99;66.11
43820;BME280;67762;52.476;6.046;2023-04-28T01:20:06;101381.53;;;6.93;65.66
43820;BME280;67762;52.476;6.046;2023-04-28T01:22:32;101376.63;;;6.88;66.16
43820;BME280;67762;52.476;6.046;2023-04-28T01:24:58;101372.75;;;6.81;66.35
43820;BME280;67762;52.476;6.046;2023-04-28T01:27:24;101365.44;;;6.74;66.04
43820;BME280;67762;52.476;6.046;2023-04-28T01:29:50;101369.44;;;6.68;66.58
43820;BME280;67762;52.476;6.046;2023-04-28T01:32:16;101372.59;;;6.62;66.98
43820;BME280;67762;52.476;6.046;2023-04-28T01:34:42;101381.91;;;6.57;66.79
43820;BME280;67762;52.476;6.046;2023-04-28T01:37:07;101374.31;;;6.52;66.76
43820;BME280;67762;52.476;6.046;2023-04-28T01:39:35;101370.22;;;6.48;67.12
43820;BME280;67762;52.476;6.046;2023-04-28T01:42:02;101363.50;;;6.44;67.66
43820;BME280;67762;52.476;6.046;2023-04-28T01:44:28;101361.91;;;6.41;67.38
43820;BME280;67762;52.476;6.046;2023-04-28T01:46:53;101349.50;;;6.42;67.83
43820;BME280;67762;52.476;6.046;2023-04-28T01:49:20;101348.56;;;6.43;68.18
43820;BME280;67762;52.476;6.046;2023-04-28T01:51:46;101338.81;;;6.43;68.79
43820;BME280;67762;52.476;6.046;2023-04-28T01:54:12;101343.00;;;6.46;68.71
43820;BME280;67762;52.476;6.046;2023-04-28T01:56:38;101326.97;;;6.47;68.66
43820;BME280;67762;52.476;6.046;2023-04-28T01:59:04;101331.06;;;6.52;68.73
43820;BME280;67762;52.476;6.046;2023-04-28T02:01:31;101338.38;;;6.59;69.13
43820;BME280;67762;52.476;6.046;2023-04-28T02:03:56;101329.94;;;6.65;69.54
43820;BME280;67762;52.476;6.046;2023-04-28T02:06:22;101329.53;;;6.70;68.98
43820;BME280;67762;52.476;6.046;2023-04-28T02:08:48;101329.03;;;6.76;68.67
43820;BME280;67762;52.476;6.046;2023-04-28T02:11:13;101330.31;;;6.81;68.78
43820;BME280;67762;52.476;6.046;2023-04-28T02:13:39;101328.28;;;6.85;68.98
43820;BME280;67762;52.476;6.046;2023-04-28T02:16:05;101324.38;;;6.89;69.52
43820;BME280;67762;52.476;6.046;2023-04-28T02:18:31;101315.31;;;6.91;68.93
43820;BME280;67762;52.476;6.046;2023-04-28T02:21:10;101315.19;;;6.93;68.66
43820;BME280;67762;52.476;6.046;2023-04-28T02:23:37;101317.16;;;6.91;68.98
43820;BME280;67762;52.476;6.046;2023-04-28T02:26:04;101312.09;;;6.88;68.68
43820;BME280;67762;52.476;6.046;2023-04-28T02:28:29;101308.84;;;6.84;68.36
43820;BME280;67762;52.476;6.046;2023-04-28T02:31:22;101308.25;;;6.81;69.34
43820;BME280;67762;52.476;6.046;2023-04-28T02:33:48;101313.00;;;6.77;69.39
43820;BME280;67762;52.476;6.046;2023-04-28T02:36:14;101305.31;;;6.74;69.46
43820;BME280;67762;52.476;6.046;2023-04-28T02:38:39;101308.22;;;6.71;69.33
43820;BME280;67762;52.476;6.046;2023-04-28T02:41:06;101305.81;;;6.68;69.51
43820;BME280;67762;52.476;6.046;2023-04-28T02:43:34;101305.22;;;6.65;69.30
43820;BME280;67762;52.476;6.046;2023-04-28T02:46:02;101301.00;;;6.62;69.35
43820;BME280;67762;52.476;6.046;2023-04-28T02:48:28;101307.28;;;6.61;69.10
43820;BME280;67762;52.476;6.046;2023-04-28T02:50:54;101299.56;;;6.58;69.66
43820;BME280;67762;52.476;6.046;2023-04-28T02:53:21;101298.84;;;6.56;69.41
43820;BME280;67762;52.476;6.046;2023-04-28T02:55:47;101287.41;;;6.56;69.76
43820;BME280;67762;52.476;6.046;2023-04-28T02:58:13;101283.78;;;6.57;69.17
43820;BME280;67762;52.476;6.046;2023-04-28T03:00:39;101278.34;;;6.58;69.75
43820;BME280;67762;52.476;6.046;2023-04-28T03:03:04;101278.94;;;6.62;69.77
43820;BME280;67762;52.476;6.046;2023-04-28T03:05:30;101280.38;;;6.66;69.54
43820;BME280;67762;52.476;6.046;2023-04-28T03:07:56;101284.34;;;6.71;69.79
43820;BME280;67762;52.476;6.046;2023-04-28T03:10:22;101278.63;;;6.76;70.31
43820;BME280;67762;52.476;6.046;2023-04-28T03:12:47;101268.47;;;6.81;69.63
43820;BME280;67762;52.476;6.046;2023-04-28T03:15:13;101270.63;;;6.87;69.88
43820;BME280;67762;52.476;6.046;2023-04-28T03:17:38;101261.56;;;6.89;69.24
43820;BME280;67762;52.476;6.046;2023-04-28T03:20:07;101261.31;;;6.92;69.32
43820;BME280;67762;52.476;6.046;2023-04-28T03:22:33;101255.59;;;6.97;69.76
43820;BME280;67762;52.476;6.046;2023-04-28T03:24:59;101252.69;;;7.00;69.66
43820;BME280;67762;52.476;6.046;2023-04-28T03:27:26;101243.63;;;7.02;68.95
43820;BME280;67762;52.476;6.046;2023-04-28T03:29:54;101253.16;;;7.05;68.93
43820;BME280;67762;52.476;6.046;2023-04-28T03:32:19;101239.88;;;7.05;69.43
43820;BME280;67762;52.476;6.046;2023-04-28T03:34:45;101226.34;;;7.08;69.86
43820;BME280;67762;52.476;6.046;2023-04-28T03:37:11;101234.03;;;7.11;69.26
43820;BME280;67762;52.476;6.046;2023-04-28T03:39:36;101226.91;;;7.12;68.92
43820;BME280;67762;52.476;6.046;2023-04-28T03:42:02;101224.16;;;7.13;69.55
43820;BME280;67762;52.476;6.046;2023-04-28T03:44:46;101212.44;;;7.16;69.16
43820;BME280;67762;52.476;6.046;2023-04-28T03:47:12;101209.63;;;7.17;69.31
43820;BME280;67762;52.476;6.046;2023-04-28T03:49:38;101202.34;;;7.19;69.25
43820;BME280;67762;52.476;6.046;2023-04-28T03:52:03;101203.94;;;7.22;69.11
43820;BME280;67762;52.476;6.046;2023-04-28T03:54:29;101201.13;;;7.23;68.91
43820;BME280;67762;52.476;6.046;2023-04-28T03:56:57;101201.97;;;7.24;68.67
43820;BME280;67762;52.476;6.046;2023-04-28T03:59:23;101195.56;;;7.26;68.62
43820;BME280;67762;52.476;6.046;2023-04-28T04:01:48;101182.13;;;7.28;68.69
43820;BME280;67762;52.476;6.046;2023-04-28T04:04:14;101182.13;;;7.28;68.13
43820;BME280;67762;52.476;6.046;2023-04-28T04:06:40;101176.84;;;7.28;68.34
43820;BME280;67762;52.476;6.046;2023-04-28T04:09:06;101174.91;;;7.30;68.86
43820;BME280;67762;52.476;6.046;2023-04-28T04:11:32;101177.41;;;7.31;68.66
43820;BME280;67762;52.476;6.046;2023-04-28T04:13:57;101182.59;;;7.33;68.04
43820;BME280;67762;52.476;6.046;2023-04-28T04:16:24;101179.94;;;7.33;68.65
43820;BME280;67762;52.476;6.046;2023-04-28T04:18:52;101169.34;;;7.33;68.06
43820;BME280;67762;52.476;6.046;2023-04-28T04:21:20;101174.50;;;7.34;68.60
43820;BME280;67762;52.476;6.046;2023-04-28T04:23:46;101175.19;;;7.36;67.82
43820;BME280;67762;52.476;6.046;2023-04-28T04:26:12;101172.41;;;7.38;67.66
43820;BME280;67762;52.476;6.046;2023-04-28T04:28:38;101171.41;;;7.39;67.82
43820;BME280;67762;52.476;6.046;2023-04-28T04:31:06;101176.47;;;7.42;67.51
43820;BME280;67762;52.476;6.046;2023-04-28T04:33:32;101169.22;;;7.44;67.88
43820;BME280;67762;52.476;6.046;2023-04-28T04:36:00;101167.25;;;7.46;68.18
43820;BME280;67762;52.476;6.046;2023-04-28T04:38:26;101161.81;;;7.47;68.13
43820;BME280;67762;52.476;6.046;2023-04-28T04:40:53;101171.31;;;7.50;67.45
43820;BME280;67762;52.476;6.046;2023-04-28T04:43:19;101155.38;;;7.50;68.35
43820;BME280;67762;52.476;6.046;2023-04-28T04:45:48;101151.75;;;7.51;67.33
43820;BME280;67762;52.476;6.046;2023-04-28T04:48:13;101142.84;;;7.52;67.89
43820;BME280;67762;52.476;6.046;2023-04-28T04:50:39;101140.88;;;7.54;67.47
43820;BME280;67762;52.476;6.046;2023-04-28T04:53:05;101138.06;;;7.55;67.06
43820;BME280;67762;52.476;6.046;2023-04-28T04:55:32;101134.16;;;7.59;68.08
43820;BME280;67762;52.476;6.046;2023-04-28T04:57:58;101129.44;;;7.63;67.89
43820;BME280;67762;52.476;6.046;2023-04-28T05:00:42;101118.66;;;7.64;66.82
43820;BME280;67762;52.476;6.046;2023-04-28T05:03:09;101114.03;;;7.66;66.90
43820;BME280;67762;52.476;6.046;2023-04-28T05:05:37;101124.13;;;7.73;67.89
43820;BME280;67762;52.476;6.046;2023-04-28T05:08:10;101126.38;;;7.77;67.13
43820;BME280;67762;52.476;6.046;2023-04-28T05:10:35;101115.16;;;7.83;67.74
43820;BME280;67762;52.476;6.046;2023-04-28T05:13:02;101119.38;;;7.86;67.78
43820;BME280;67762;52.476;6.046;2023-04-28T05:15:28;101115.72;;;7.87;67.26
43820;BME280;67762;52.476;6.046;2023-04-28T05:18:13;101120.78;;;7.90;67.35
43820;BME280;67762;52.476;6.046;2023-04-28T05:20:38;101114.22;;;7.94;66.60
43820;BME280;67762;52.476;6.046;2023-04-28T05:23:04;101121.34;;;7.93;67.33
43820;BME280;67762;52.476;6.046;2023-04-28T05:25:31;101120.22;;;7.96;66.20
43820;BME280;67762;52.476;6.046;2023-04-28T05:27:57;101118.94;;;8.00;66.81
43820;BME280;67762;52.476;6.046;2023-04-28T05:30:22;101123.00;;;8.04;66.48
43820;BME280;67762;52.476;6.046;2023-04-28T05:32:48;101122.28;;;8.11;66.59
43820;BME280;67762;52.476;6.046;2023-04-28T05:35:14;101118.22;;;8.17;66.24
43820;BME280;67762;52.476;6.046;2023-04-28T05:37:40;101132.66;;;8.24;65.56
43820;BME280;67762;52.476;6.046;2023-04-28T05:40:09;101133.94;;;8.30;66.24
43820;BME280;67762;52.476;6.046;2023-04-28T05:42:34;101129.72;;;8.37;66.37
43820;BME280;67762;52.476;6.046;2023-04-28T05:45:00;101130.28;;;8.40;66.25
43820;BME280;67762;52.476;6.046;2023-04-28T05:47:27;101128.47;;;8.41;65.49
43820;BME280;67762;52.476;6.046;2023-04-28T05:49:54;101124.69;;;8.43;65.58
43820;BME280;67762;52.476;6.046;2023-04-28T05:52:20;101115.69;;;8.44;65.03
43820;BME280;67762;52.476;6.046;2023-04-28T05:54:45;101114.59;;;8.47;65.51
43820;BME280;67762;52.476;6.046;2023-04-28T05:57:11;101111.63;;;8.50;64.76
43820;BME280;67762;52.476;6.046;2023-04-28T05:59:37;101115.69;;;8.54;65.38
43820;BME280;67762;52.476;6.046;2023-04-28T06:02:03;101111.78;;;8.58;64.72
43820;BME280;67762;52.476;6.046;2023-04-28T06:04:29;101113.31;;;8.60;65.24
43820;BME280;67762;52.476;6.046;2023-04-28T06:06:54;101108.50;;;8.64;64.88
43820;BME280;67762;52.476;6.046;2023-04-28T06:09:20;101103.06;;;8.65;64.51
43820;BME280;67762;52.476;6.046;2023-04-28T06:11:46;101100.97;;;8.69;64.53
43820;BME280;67762;52.476;6.046;2023-04-28T06:14:12;101099.81;;;8.71;64.41
43820;BME280;67762;52.476;6.046;2023-04-28T06:16:37;101101.78;;;8.69;64.31
43820;BME280;67762;52.476;6.046;2023-04-28T06:19:03;101097.28;;;8.70;65.02
43820;BME280;67762;52.476;6.046;2023-04-28T06:21:28;101098.81;;;8.72;64.39
43820;BME280;67762;52.476;6.046;2023-04-28T06:23:55;101105.38;;;8.78;64.72
43820;BME280;67762;52.476;6.046;2023-04-28T06:26:21;101112.78;;;8.84;64.90
43820;BME280;67762;52.476;6.046;2023-04-28T06:28:46;101108.03;;;8.88;64.56
43820;BME280;67762;52.476;6.046;2023-04-28T06:31:12;101121.88;;;8.91;64.65
43820;BME280;67762;52.476;6.046;2023-04-28T06:33:38;101110.63;;;8.97;64.17
43820;BME280;67762;52.476;6.046;2023-04-28T06:36:05;101120.13;;;9.00;64.66
43820;BME280;67762;52.476;6.046;2023-04-28T06:38:31;101109.06;;;9.04;64.37
43820;BME280;67762;52.476;6.046;2023-04-28T06:40:56;101121.50;;;9.13;64.18
43820;BME280;67762;52.476;6.046;2023-04-28T06:43:22;101107.28;;;9.22;64.49
43820;BME280;67762;52.476;6.046;2023-04-28T06:46:00;101105.84;;;9.28;64.18
43820;BME280;67762;52.476;6.046;2023-04-28T06:48:27;101090.88;;;9.27;64.29
43820;BME280;67762;52.476;6.046;2023-04-28T06:50:52;101083.56;;;9.29;64.24
43820;BME280;67762;52.476;6.046;2023-04-28T06:53:21;101072.75;;;9.30;64.70
43820;BME280;67762;52.476;6.046;2023-04-28T06:55:46;101073.59;;;9.31;64.46
43820;BME280;67762;52.476;6.046;2023-04-28T06:58:12;101069.41;;;9.28;64.75
43820;BME280;67762;52.476;6.046;2023-04-28T07:00:37;101070.72;;;9.24;64.37
43820;BME280;67762;52.476;6.046;2023-04-28T07:03:03;101070.72;;;9.24;64.70
43820;BME280;67762;52.476;6.046;2023-04-28T07:05:29;101059.34;;;9.22;64.78
43820;BME280;67762;52.476;6.046;2023-04-28T07:07:54;101042.44;;;9.14;64.76
43820;BME280;67762;52.476;6.046;2023-04-28T07:10:20;101043.94;;;8.99;65.88
43820;BME280;67762;52.476;6.046;2023-04-28T07:12:45;101051.13;;;8.89;66.24
43820;BME280;67762;52.476;6.046;2023-04-28T07:15:11;101042.63;;;8.85;66.70
43820;BME280;67762;52.476;6.046;2023-04-28T07:17:37;101051.75;;;8.82;66.81
43820;BME280;67762;52.476;6.046;2023-04-28T07:20:03;101052.97;;;8.88;67.62
43820;BME280;67762;52.476;6.046;2023-04-28T07:22:29;101062.13;;;9.03;67.80
43820;BME280;67762;52.476;6.046;2023-04-28T07:24:55;101072.16;;;9.19;67.67
43820;BME280;67762;52.476;6.046;2023-04-28T07:27:21;101069.56;;;9.45;67.96
43820;BME280;67762;52.476;6.046;2023-04-28T07:29:47;101077.19;;;9.75;68.16
43820;BME280;67762;52.476;6.046;2023-04-28T07:32:13;101078.88;;;9.93;68.09
43820;BME280;67762;52.476;6.046;2023-04-28T07:34:38;101071.97;;;10.09;67.96
43820;BME280;67762;52.476;6.046;2023-04-28T07:37:04;101081.91;;;10.16;67.92
43820;BME280;67762;52.476;6.046;2023-04-28T07:39:30;101074.75;;;10.17;67.57
43820;BME280;67762;52.476;6.046;2023-04-28T07:41:56;101078.00;;;10.28;67.83
43820;BME280;67762;52.476;6.046;2023-04-28T07:44:23;101067.97;;;10.48;67.69
43820;BME280;67762;52.476;6.046;2023-04-28T07:46:49;101074.84;;;10.58;67.61
43820;BME280;67762;52.476;6.046;2023-04-28T07:49:14;101077.25;;;10.70;67.71
43820;BME280;67762;52.476;6.046;2023-04-28T07:51:40;101065.44;;;10.80;67.02
43820;BME280;67762;52.476;6.046;2023-04-28T07:54:06;101070.00;;;10.88;67.19
43820;BME280;67762;52.476;6.046;2023-04-28T07:56:31;101067.50;;;10.86;67.65
43820;BME280;67762;52.476;6.046;2023-04-28T07:58:57;101073.94;;;10.76;67.09
43820;BME280;67762;52.476;6.046;2023-04-28T08:01:22;101071.78;;;10.71;67.36
43820;BME280;67762;52.476;6.046;2023-04-28T08:03:48;101075.28;;;10.72;67.58
43820;BME280;67762;52.476;6.046;2023-04-28T08:06:14;101079.59;;;10.73;68.15
43820;BME280;67762;52.476;6.046;2023-04-28T08:08:39;101071.13;;;10.77;67.79
43820;BME280;67762;52.476;6.046;2023-04-28T08:11:06;101078.66;;;10.82;68.53
43820;BME280;67762;52.476;6.046;2023-04-28T08:13:32;101073.34;;;10.90;68.50
43820;BME280;67762;52.476;6.046;2023-04-28T08:15:58;101073.59;;;11.04;67.88
43820;BME280;67762;52.476;6.046;2023-04-28T08:18:27;101058.56;;;11.11;68.08
43820;BME280;67762;52.476;6.046;2023-04-28T08:20:53;101057.94;;;11.18;68.09
43820;BME280;67762;52.476;6.046;2023-04-28T08:23:19;101053.47;;;11.26;68.77
43820;BME280;67762;52.476;6.046;2023-04-28T08:25:45;101052.31;;;11.37;67.92
43820;BME280;67762;52.476;6.046;2023-04-28T08:28:12;101052.16;;;11.46;68.36
43820;BME280;67762;52.476;6.046;2023-04-28T08:30:38;101052.66;;;11.58;68.94
43820;BME280;67762;52.476;6.046;2023-04-28T08:33:04;101055.03;;;11.69;68.66
43820;BME280;67762;52.476;6.046;2023-04-28T08:35:29;101062.41;;;11.75;67.93
43820;BME280;67762;52.476;6.046;2023-04-28T08:37:55;101063.44;;;11.74;68.11
43820;BME280;67762;52.476;6.046;2023-04-28T08:40:21;101057.41;;;11.80;68.72
43820;BME280;67762;52.476;6.046;2023-04-28T08:42:48;101062.59;;;11.90;68.44
43820;BME280;67762;52.476;6.046;2023-04-28T08:45:14;101059.25;;;12.04;68.75
43820;BME280;67762;52.476;6.046;2023-04-28T08:47:41;101059.91;;;12.06;69.37
43820;BME280;67762;52.476;6.046;2023-04-28T08:50:11;101059.44;;;12.10;69.51
43820;BME280;67762;52.476;6.046;2023-04-28T08:52:37;101054.41;;;12.15;68.42
43820;BME280;67762;52.476;6.046;2023-04-28T08:55:08;101052.22;;;12.27;69.65
43820;BME280;67762;52.476;6.046;2023-04-28T08:57:38;101046.84;;;12.19;68.88
43820;BME280;67762;52.476;6.046;2023-04-28T09:00:05;101050.88;;;12.23;69.30
43820;BME280;67762;52.476;6.046;2023-04-28T09:02:31;101043.84;;;12.38;70.03
43820;BME280;67762;52.476;6.046;2023-04-28T09:04:57;101050.78;;;12.55;70.03
43820;BME280;67762;52.476;6.046;2023-04-28T09:07:22;101044.03;;;12.75;69.12
43820;BME280;67762;52.476;6.046;2023-04-28T09:09:48;101033.16;;;12.85;69.34
43820;BME280;67762;52.476;6.046;2023-04-28T09:12:13;101036.41;;;13.03;69.18
43820;BME280;67762;52.476;6.046;2023-04-28T09:14:39;101041.53;;;13.21;69.43
43820;BME280;67762;52.476;6.046;2023-04-28T09:17:10;101040.44;;;13.38;68.88
43820;BME280;67762;52.476;6.046;2023-04-28T09:19:38;101034.34;;;13.67;68.89
43820;BME280;67762;52.476;6.046;2023-04-28T09:22:07;101025.09;;;13.92;68.91
43820;BME280;67762;52.476;6.046;2023-04-28T09:24:39;101024.88;;;14.16;68.33
43820;BME280;67762;52.476;6.046;2023-04-28T09:27:09;101025.34;;;14.20;68.35
43820;BME280;67762;52.476;6.046;2023-04-28T09:29:37;101019.88;;;14.28;68.08
43820;BME280;67762;52.476;6.046;2023-04-28T09:32:19;101010.56;;;14.38;67.95
43820;BME280;67762;52.476;6.046;2023-04-28T09:34:48;101008.66;;;14.61;68.08
43820;BME280;67762;52.476;6.046;2023-04-28T09:37:22;101004.38;;;14.82;67.58
43820;BME280;67762;52.476;6.046;2023-04-28T09:39:52;100997.16;;;14.82;68.34
43820;BME280;67762;52.476;6.046;2023-04-28T09:45:02;100982.38;;;15.29;66.66
43820;BME280;67762;52.476;6.046;2023-04-28T09:47:30;100979.31;;;15.46;66.90
43820;BME280;67762;52.476;6.046;2023-04-28T09:50:00;100987.22;;;15.75;66.35
43820;BME280;67762;52.476;6.046;2023-04-28T09:52:26;100976.81;;;15.94;65.57
43820;BME280;67762;52.476;6.046;2023-04-28T09:54:53;100969.38;;;15.96;65.38
43820;BME280;67762;52.476;6.046;2023-04-28T09:57:20;100982.66;;;15.76;64.97
43820;BME280;67762;52.476;6.046;2023-04-28T09:59:48;100978.50;;;15.73;64.68
43820;BME280;67762;52.476;6.046;2023-04-28T10:02:18;100983.25;;;15.71;65.17
43820;BME280;67762;52.476;6.046;2023-04-28T10:04:47;100981.00;;;15.75;65.89
43820;BME280;67762;52.476;6.046;2023-04-28T10:07:14;100977.75;;;15.58;65.86
43820;BME280;67762;52.476;6.046;2023-04-28T10:09:42;100972.84;;;15.26;65.97
43820;BME280;67762;52.476;6.046;2023-04-28T10:12:13;100976.03;;;15.15;66.73
43820;BME280;67762;52.476;6.046;2023-04-28T10:14:40;100969.19;;;15.12;66.83
43820;BME280;67762;52.476;6.046;2023-04-28T10:17:05;100964.97;;;15.24;67.48
43820;BME280;67762;52.476;6.046;2023-04-28T10:19:33;100962.56;;;15.51;66.87
43820;BME280;67762;52.476;6.046;2023-04-28T10:22:09;100951.91;;;15.85;66.54
43820;BME280;67762;52.476;6.046;2023-04-28T10:27:28;100967.53;;;15.75;66.04
43820;BME280;67762;52.476;6.046;2023-04-28T10:30:12;100968.41;;;15.54;66.41
43820;BME280;67762;52.476;6.046;2023-04-28T10:32:37;100965.25;;;15.30;67.32
43820;BME280;67762;52.476;6.046;2023-04-28T10:38:08;100958.22;;;14.93;67.94
43820;BME280;67762;52.476;6.046;2023-04-28T10:40:44;100958.44;;;14.77;68.96
43820;BME280;67762;52.476;6.046;2023-04-28T10:48:23;100965.03;;;14.16;71.29
43820;BME280;67762;52.476;6.046;2023-04-28T10:56:17;100959.25;;;14.04;72.53
43820;BME280;67762;52.476;6.046;2023-04-28T10:58:45;100958.16;;;13.98;72.75
43820;BME280;67762;52.476;6.046;2023-04-28T11:06:24;100952.13;;;14.11;73.34
43820;BME280;67762;52.476;6.046;2023-04-28T11:08:51;100955.50;;;14.13;73.49
43820;BME280;67762;52.476;6.046;2023-04-28T11:11:19;100960.09;;;14.04;73.47
43820;BME280;67762;52.476;6.046;2023-04-28T11:13:46;100954.50;;;13.91;73.87
43820;BME280;67762;52.476;6.046;2023-04-28T11:16:20;100941.53;;;13.80;74.26
43820;BME280;67762;52.476;6.046;2023-04-28T11:18:55;100954.16;;;13.80;74.27
43820;BME280;67762;52.476;6.046;2023-04-28T11:21:23;100957.13;;;13.85;74.81
43820;BME280;67762;52.476;6.046;2023-04-28T11:23:49;100949.91;;;14.00;74.82
43820;BME280;67762;52.476;6.046;2023-04-28T11:26:16;100957.50;;;13.96;74.69
43820;BME280;67762;52.476;6.046;2023-04-28T11:28:50;100949.34;;;13.90;75.11
43820;BME280;67762;52.476;6.046;2023-04-28T11:31:17;100955.72;;;13.74;74.92
43820;BME280;67762;52.476;6.046;2023-04-28T11:34:10;100955.59;;;13.68;75.47
43820;BME280;67762;52.476;6.046;2023-04-28T11:36:44;100939.03;;;13.64;76.26
43820;BME280;67762;52.476;6.046;2023-04-28T11:39:11;100948.25;;;13.62;76.24
43820;BME280;67762;52.476;6.046;2023-04-28T11:41:39;100948.97;;;13.56;77.07
43820;BME280;67762;52.476;6.046;2023-04-28T11:44:16;100952.84;;;13.53;76.90
43820;BME280;67762;52.476;6.046;2023-04-28T11:46:49;100951.66;;;13.56;77.52
43820;BME280;67762;52.476;6.046;2023-04-28T11:49:17;100954.88;;;13.51;77.65
43820;BME280;67762;52.476;6.046;2023-04-28T11:51:43;100959.06;;;13.54;78.04
43820;BME280;67762;52.476;6.046;2023-04-28T11:54:11;100956.31;;;13.62;78.11
43820;BME280;67762;52.476;6.046;2023-04-28T11:56:41;100965.47;;;13.67;78.23
43820;BME280;67762;52.476;6.046;2023-04-28T11:59:09;100963.69;;;13.82;78.24
43820;BME280;67762;52.476;6.046;2023-04-28T12:01:51;100962.91;;;13.88;77.79
43820;BME280;67762;52.476;6.046;2023-04-28T12:04:37;100960.03;;;13.75;78.38
43820;BME280;67762;52.476;6.046;2023-04-28T12:07:14;100961.94;;;13.67;78.67
43820;BME280;67762;52.476;6.046;2023-04-28T12:09:48;100960.47;;;13.64;79.78
43820;BME280;67762;52.476;6.046;2023-04-28T12:12:26;100951.34;;;13.73;79.59
43820;BME280;67762;52.476;6.046;2023-04-28T12:15:01;100944.25;;;13.95;79.93
43820;BME280;67762;52.476;6.046;2023-04-28T12:17:31;100945.09;;;14.25;80.05
43820;BME280;67762;52.476;6.046;2023-04-28T12:19:59;100951.50;;;14.53;79.59
43820;BME280;67762;52.476;6.046;2023-04-28T12:22:25;100940.38;;;14.85;79.14
43820;BME280;67762;52.476;6.046;2023-04-28T12:25:04;100939.22;;;14.94;78.82
43820;BME280;67762;52.476;6.046;2023-04-28T12:27:31;100943.13;;;14.77;78.65
43820;BME280;67762;52.476;6.046;2023-04-28T12:29:57;100952.72;;;14.65;78.42
43820;BME280;67762;52.476;6.046;2023-04-28T12:32:40;100945.94;;;14.69;78.95
43820;BME280;67762;52.476;6.046;2023-04-28T12:35:07;100934.91;;;14.79;79.12
43820;BME280;67762;52.476;6.046;2023-04-28T12:37:33;100945.00;;;14.77;78.60
43820;BME280;67762;52.476;6.046;2023-04-28T12:39:59;100934.91;;;14.79;78.98
43820;BME280;67762;52.476;6.046;2023-04-28T12:42:24;100939.22;;;14.94;79.17
43820;BME280;67762;52.476;6.046;2023-04-28T12:44:50;100925.16;;;15.13;78.45
43820;BME280;67762;52.476;6.046;2023-04-28T12:47:16;100926.31;;;15.04;78.54
43820;BME280;67762;52.476;6.046;2023-04-28T12:49:43;100925.22;;;14.99;78.23
43820;BME280;67762;52.476;6.046;2023-04-28T12:52:09;100926.19;;;15.12;78.86
43820;BME280;67762;52.476;6.046;2023-04-28T12:54:35;100929.00;;;15.26;77.94
43820;BME280;67762;52.476;6.046;2023-04-28T12:57:02;100931.56;;;15.34;78.25
43820;BME280;67762;52.476;6.046;2023-04-28T12:59:27;100923.69;;;15.53;78.26
43820;BME280;67762;52.476;6.046;2023-04-28T13:01:53;100926.00;;;15.56;78.06
43820;BME280;67762;52.476;6.046;2023-04-28T13:04:20;100918.03;;;15.69;76.78
43820;BME280;67762;52.476;6.046;2023-04-28T13:06:46;100915.41;;;15.48;76.92
43820;BME280;67762;52.476;6.046;2023-04-28T13:09:13;100919.94;;;15.27;76.81
43820;BME280;67762;52.476;6.046;2023-04-28T13:11:40;100914.22;;;15.15;77.31
43820;BME280;67762;52.476;6.046;2023-04-28T13:14:06;100918.25;;;15.04;78.06
43820;BME280;67762;52.476;6.046;2023-04-28T13:16:32;100921.69;;;14.98;78.63
43820;BME280;67762;52.476;6.046;2023-04-28T13:18:59;100922.53;;;14.99;78.54
43820;BME280;67762;52.476;6.046;2023-04-28T13:21:26;100912.09;;;14.89;78.70